createdAt,value
2023-05-11T00:02:30.116Z,9.90
2023-05-11T00:06:12.033Z,13.48
2023-05-11T00:09:53.847Z,9.68
2023-05-11T00:13:35.745Z,10.00
2023-05-11T00:17:20.774Z,9.90
2023-05-11T00:21:02.754Z,9.30
2023-05-11T00:24:44.742Z,11.43
2023-05-11T00:28:26.597Z,7.07
2023-05-11T00:32:08.450Z,8.75
2023-05-11T00:35:51.100Z,9.13
2023-05-11T00:39:38.644Z,11.32
2023-05-11T00:43:20.544Z,12.95
2023-05-11T00:47:03.088Z,7.25
2023-05-11T00:50:45.291Z,10.13
2023-05-11T00:54:27.574Z,8.68
2023-05-11T00:58:09.446Z,7.38
2023-05-11T01:01:51.496Z,6.43
2023-05-11T01:05:47.137Z,8.38
2023-05-11T01:09:59.637Z,7.50
2023-05-11T01:13:48.275Z,15.13
2023-05-11T01:17:44.227Z,7.05
2023-05-11T01:21:33.324Z,8.93
2023-05-11T01:25:49.118Z,5.65
2023-05-11T01:29:44.941Z,5.17
2023-05-11T01:33:32.836Z,9.10
2023-05-11T01:37:19.428Z,8.88
2023-05-11T01:41:06.711Z,10.30
2023-05-11T01:44:52.965Z,7.38
2023-05-11T01:48:40.894Z,8.37
2023-05-11T01:52:25.983Z,12.13
2023-05-11T01:56:09.272Z,7.18
2023-05-11T01:59:52.391Z,8.00
2023-05-11T02:03:36.977Z,15.10
2023-05-11T02:07:20.312Z,7.70
2023-05-11T02:11:04.260Z,6.05
2023-05-11T02:14:47.469Z,8.70
2023-05-11T02:18:30.762Z,9.50
2023-05-11T02:22:13.508Z,10.88
2023-05-11T02:25:56.726Z,11.45
2023-05-11T02:29:38.622Z,9.38
2023-05-11T02:33:31.045Z,9.82
2023-05-11T02:37:21.173Z,8.43
2023-05-11T02:41:07.333Z,13.57
2023-05-11T02:45:05.284Z,7.00
2023-05-11T02:48:55.267Z,10.00
2023-05-11T02:52:43.075Z,10.63
2023-05-11T02:56:25.980Z,13.98
2023-05-11T03:00:08.565Z,12.75
2023-05-11T03:03:51.315Z,16.05
2023-05-11T03:07:34.090Z,7.53
2023-05-11T03:11:18.105Z,11.10
2023-05-11T03:15:00.951Z,11.60
2023-05-11T03:18:44.441Z,12.80
2023-05-11T03:22:27.520Z,10.35
2023-05-11T03:26:11.815Z,13.25
2023-05-11T03:29:55.787Z,9.68
2023-05-11T03:33:37.809Z,11.77
2023-05-11T03:37:20.469Z,10.15
2023-05-11T03:41:02.619Z,10.80
2023-05-11T03:44:47.535Z,15.07
2023-05-11T03:48:29.766Z,7.75
2023-05-11T03:52:12.286Z,15.77
2023-05-11T03:55:54.859Z,7.70
2023-05-11T03:59:38.977Z,8.55
2023-05-11T04:03:21.143Z,8.68
2023-05-11T04:07:03.345Z,11.60
2023-05-11T04:10:45.195Z,9.18
2023-05-11T04:14:27.083Z,11.73
2023-05-11T04:18:09.037Z,9.73
2023-05-11T04:21:50.959Z,13.65
2023-05-11T04:25:32.782Z,8.80
2023-05-11T04:29:14.574Z,10.75
2023-05-11T04:32:56.498Z,7.32
2023-05-11T04:36:38.337Z,10.57
2023-05-11T04:40:20.530Z,10.23
2023-05-11T04:44:02.490Z,6.95
2023-05-11T04:47:44.369Z,8.23
2023-05-11T04:51:26.209Z,13.20
2023-05-11T04:55:08.327Z,9.60
2023-05-11T04:58:50.262Z,9.50
2023-05-11T05:02:32.081Z,9.60
2023-05-11T05:06:13.876Z,12.27
2023-05-11T05:09:58.835Z,10.27
2023-05-11T05:13:41.147Z,7.63
2023-05-11T05:17:23.039Z,12.82
2023-05-11T05:21:05.024Z,8.25
2023-05-11T05:24:46.883Z,11.80
2023-05-11T05:28:28.734Z,14.52
2023-05-11T05:32:10.612Z,7.25
2023-05-11T05:35:52.389Z,8.80
2023-05-11T05:39:34.257Z,10.63
2023-05-11T05:43:16.084Z,10.27
2023-05-11T05:46:57.930Z,8.63
2023-05-11T05:50:39.755Z,7.53
2023-05-11T05:54:21.618Z,9.57
2023-05-11T05:58:03.451Z,8.20
2023-05-11T06:01:48.420Z,9.65
2023-05-11T06:05:30.267Z,7.25
2023-05-11T06:09:12.447Z,11.25
2023-05-11T06:12:54.262Z,7.55
2023-05-11T06:16:36.128Z,9.35
2023-05-11T06:20:18.514Z,10.10
2023-05-11T06:24:00.495Z,9.63
2023-05-11T06:27:42.492Z,9.35
2023-05-11T06:31:24.496Z,9.40
2023-05-11T06:35:06.837Z,6.47
2023-05-11T06:38:48.846Z,9.93
2023-05-11T06:42:30.646Z,11.10
2023-05-11T06:46:16.397Z,9.57
2023-05-11T06:49:58.262Z,10.70
2023-05-11T06:53:40.157Z,6.57
2023-05-11T06:57:21.963Z,11.68
2023-05-11T07:01:05.810Z,14.48
2023-05-11T07:04:47.698Z,12.15
2023-05-11T07:08:29.632Z,13.68
2023-05-11T07:12:11.462Z,11.43
2023-05-11T07:15:55.252Z,14.98
2023-05-11T07:19:38.582Z,14.35
2023-05-11T07:23:20.637Z,17.65
2023-05-11T07:27:02.536Z,13.52
2023-05-11T07:30:44.530Z,11.45
2023-05-11T07:34:26.317Z,12.05
2023-05-11T07:38:09.717Z,12.52
2023-05-11T07:41:51.535Z,11.27
2023-05-11T07:45:33.424Z,10.45
2023-05-11T07:49:18.939Z,8.75
2023-05-11T07:53:07.372Z,10.52
2023-05-11T07:56:50.189Z,12.40
2023-05-11T08:00:32.069Z,10.60
2023-05-11T08:04:13.935Z,11.45
2023-05-11T08:07:55.801Z,13.05
2023-05-11T08:11:37.609Z,11.10
2023-05-11T08:15:20.260Z,11.18
2023-05-11T08:19:02.336Z,10.85
2023-05-11T08:22:44.837Z,13.20
2023-05-11T08:26:26.647Z,10.27
2023-05-11T08:30:11.761Z,15.85
2023-05-11T08:33:53.902Z,12.57
2023-05-11T08:37:36.131Z,13.15
2023-05-11T08:41:17.923Z,15.45
2023-05-11T08:45:01.304Z,11.52
2023-05-11T08:48:44.650Z,15.43
2023-05-11T08:52:28.061Z,14.32
2023-05-11T08:56:10.688Z,16.13
2023-05-11T08:59:53.423Z,13.60
2023-05-11T09:03:37.074Z,13.43
2023-05-11T09:07:19.773Z,11.38
2023-05-11T09:11:01.656Z,18.83
2023-05-11T09:14:43.821Z,10.57
2023-05-11T09:18:26.374Z,8.80
2023-05-11T09:22:08.293Z,11.02
2023-05-11T09:25:50.352Z,10.00
2023-05-11T09:29:32.241Z,7.78
2023-05-11T09:33:23.632Z,8.20
2023-05-11T09:37:19.365Z,4.97
2023-05-11T09:41:03.266Z,2.57
2023-05-11T09:44:46.617Z,5.63
2023-05-11T09:48:31.758Z,4.55
2023-05-11T09:52:15.751Z,4.82
2023-05-11T09:55:57.746Z,4.10
2023-05-11T09:59:41.430Z,3.15
2023-05-11T10:03:25.675Z,3.38
2023-05-11T10:07:07.748Z,2.75
2023-05-11T10:10:49.889Z,3.70
2023-05-11T10:14:33.621Z,5.47
2023-05-11T10:18:16.497Z,3.70
2023-05-11T10:22:01.245Z,2.13
2023-05-11T10:25:43.555Z,2.33
2023-05-11T10:29:25.974Z,3.40
2023-05-11T10:33:09.669Z,3.10
2023-05-11T10:36:53.325Z,4.85
2023-05-11T10:40:40.882Z,1.73
2023-05-11T10:44:46.983Z,2.33
2023-05-11T10:48:47.022Z,3.13
2023-05-11T10:52:53.139Z,2.80
2023-05-11T10:57:05.039Z,3.75
2023-05-11T11:01:31.083Z,2.67
2023-05-11T11:05:17.783Z,2.47
2023-05-11T11:09:02.098Z,3.65
2023-05-11T11:13:02.831Z,2.55
2023-05-11T11:17:15.935Z,1.30
2023-05-11T11:20:59.172Z,1.83
2023-05-11T11:24:45.740Z,1.98
2023-05-11T11:28:28.280Z,2.38
2023-05-11T11:32:23.150Z,1.98
2023-05-11T11:39:50.320Z,2.35
2023-05-11T11:43:47.274Z,1.25
2023-05-11T11:47:29.376Z,1.77
2023-05-11T11:51:13.331Z,1.50
2023-05-11T11:55:04.158Z,1.90
2023-05-11T11:58:46.296Z,4.40
2023-05-11T12:02:28.757Z,3.42
2023-05-11T12:06:12.263Z,2.60
2023-05-11T12:09:54.292Z,2.45
2023-05-11T12:13:36.407Z,0.98
2023-05-11T12:17:28.268Z,2.85
2023-05-11T12:21:24.277Z,2.03
2023-05-11T12:25:07.810Z,2.20
2023-05-11T12:28:50.903Z,2.67
2023-05-11T12:32:32.787Z,3.05
2023-05-11T12:36:16.805Z,4.40
2023-05-11T12:39:59.478Z,2.13
2023-05-11T12:43:42.867Z,1.23
2023-05-11T12:47:25.341Z,1.33
2023-05-11T12:51:07.458Z,2.40
2023-05-11T12:55:00.257Z,1.95
2023-05-11T12:58:42.638Z,1.73
2023-05-11T13:02:24.560Z,1.40
2023-05-11T13:06:12.076Z,1.63
2023-05-11T13:09:58.553Z,2.70
2023-05-11T13:13:40.527Z,1.23
2023-05-11T13:17:36.654Z,3.58
2023-05-11T13:21:19.619Z,2.20
2023-05-11T13:25:02.460Z,2.92
2023-05-11T13:28:45.858Z,3.22
2023-05-11T13:32:32.377Z,1.80
2023-05-11T13:36:14.279Z,1.52
2023-05-11T13:39:56.195Z,1.25
2023-05-11T13:43:38.030Z,1.83
2023-05-11T13:47:20.413Z,1.85
2023-05-11T13:51:04.922Z,4.05
2023-05-11T13:54:46.741Z,2.50
2023-05-11T13:58:35.202Z,4.15
2023-05-11T14:02:17.212Z,3.05
2023-05-11T14:05:59.397Z,2.42
2023-05-11T14:09:43.724Z,2.10
2023-05-11T14:13:25.820Z,1.73
2023-05-11T14:17:08.050Z,1.23
2023-05-11T14:20:49.907Z,0.95
2023-05-11T14:24:31.796Z,1.30
2023-05-11T14:28:13.665Z,1.13
2023-05-11T14:31:55.633Z,1.67
2023-05-11T14:35:39.640Z,1.10
2023-05-11T14:39:21.755Z,2.72
2023-05-11T14:43:03.603Z,2.35
2023-05-11T14:46:45.542Z,0.57
2023-05-11T14:50:29.239Z,1.80
2023-05-11T14:54:11.041Z,1.02
2023-05-11T14:57:53.454Z,0.52
2023-05-11T15:01:35.612Z,0.75
2023-05-11T15:05:17.689Z,2.65
2023-05-11T15:08:59.785Z,2.28
2023-05-11T15:12:41.737Z,1.98
2023-05-11T15:16:23.597Z,1.83
2023-05-11T15:20:06.434Z,1.25
2023-05-11T15:23:49.373Z,2.10
2023-05-11T15:27:32.412Z,1.42
2023-05-11T15:31:14.311Z,3.45
2023-05-11T15:34:59.684Z,1.08
2023-05-11T15:38:43.013Z,1.35
2023-05-11T15:42:25.071Z,0.80
2023-05-11T15:46:07.236Z,4.35
2023-05-11T15:49:49.745Z,1.83
2023-05-11T15:53:31.841Z,1.85
2023-05-11T15:57:13.761Z,1.95
2023-05-11T16:00:58.546Z,3.30
2023-05-11T16:04:40.589Z,3.28
2023-05-11T16:08:22.396Z,1.98
2023-05-11T16:12:04.621Z,1.85
2023-05-11T16:15:46.505Z,3.40
2023-05-11T16:19:28.519Z,1.15
2023-05-11T16:23:10.295Z,3.88
2023-05-11T16:26:52.360Z,1.00
2023-05-11T16:30:34.479Z,0.93
2023-05-11T16:34:16.355Z,2.33
2023-05-11T16:37:59.789Z,2.72
2023-05-11T16:41:41.626Z,1.63
2023-05-11T16:45:23.654Z,1.10
2023-05-11T16:49:05.668Z,1.33
2023-05-11T16:52:48.739Z,3.13
2023-05-11T16:56:30.892Z,1.60
2023-05-11T17:00:13.652Z,2.05
2023-05-11T17:03:55.631Z,1.40
2023-05-11T17:07:37.842Z,1.98
2023-05-11T17:11:20.632Z,2.47
2023-05-11T17:15:03.080Z,2.00
2023-05-11T17:18:45.264Z,3.38
2023-05-11T17:22:28.450Z,2.58
2023-05-11T17:26:11.367Z,2.03
2023-05-11T17:29:53.153Z,4.65
2023-05-11T17:33:35.110Z,3.50
2023-05-11T17:37:30.611Z,2.75
2023-05-11T17:41:14.348Z,2.50
2023-05-11T17:44:56.809Z,2.90
2023-05-11T17:48:39.244Z,2.95
2023-05-11T17:52:21.432Z,2.70
2023-05-11T17:56:03.980Z,2.83
2023-05-11T17:59:47.678Z,3.90
2023-05-11T18:03:30.102Z,3.53
2023-05-11T18:07:12.389Z,5.43
2023-05-11T18:10:54.692Z,5.13
2023-05-11T18:14:36.624Z,6.78
2023-05-11T18:18:18.534Z,8.32
2023-05-11T18:22:00.714Z,6.63
2023-05-11T18:25:42.754Z,6.40
2023-05-11T18:29:25.883Z,8.63
2023-05-11T18:33:07.836Z,8.88
2023-05-11T18:36:49.760Z,5.78
2023-05-11T18:40:31.612Z,4.47
2023-05-11T18:44:15.126Z,7.47
2023-05-11T18:47:57.351Z,7.47
2023-05-11T18:51:39.279Z,5.28
2023-05-11T18:55:21.283Z,7.28
2023-05-11T18:59:03.082Z,10.98
2023-05-11T19:02:48.104Z,9.98
2023-05-11T19:06:30.360Z,4.80
2023-05-11T19:10:12.599Z,4.68
2023-05-11T19:13:54.364Z,5.18
2023-05-11T19:17:36.394Z,6.28
2023-05-11T19:21:18.275Z,7.88
2023-05-11T19:25:00.873Z,11.52
2023-05-11T19:28:42.716Z,12.77
2023-05-11T19:32:24.859Z,6.97
2023-05-11T19:36:07.354Z,9.70
2023-05-11T19:39:49.438Z,6.30
2023-05-11T19:43:31.400Z,9.75
2023-05-11T19:47:14.061Z,10.60
2023-05-11T19:50:59.085Z,6.30
2023-05-11T19:54:51.725Z,9.57
2023-05-11T19:58:33.991Z,5.78
2023-05-11T20:02:16.492Z,8.30
2023-05-11T20:05:58.728Z,6.28
2023-05-11T20:09:40.747Z,7.45
2023-05-11T20:13:22.875Z,9.13
2023-05-11T20:17:07.310Z,4.00
2023-05-11T20:20:49.732Z,5.35
2023-05-11T20:24:31.655Z,2.20
2023-05-11T20:28:13.573Z,5.70
2023-05-11T20:31:55.484Z,2.47
2023-05-11T20:35:37.473Z,1.52
2023-05-11T20:39:20.798Z,1.48
2023-05-11T20:43:04.126Z,1.40
2023-05-11T20:46:50.448Z,3.08
2023-05-11T20:50:33.072Z,1.35
2023-05-11T20:54:14.976Z,2.22
2023-05-11T20:57:57.649Z,2.42
2023-05-11T21:01:40.230Z,2.13
2023-05-11T21:05:24.814Z,1.40
2023-05-11T21:09:07.800Z,1.33
2023-05-11T21:12:53.170Z,1.23
2023-05-11T21:16:35.051Z,2.17
2023-05-11T21:20:17.307Z,4.75
2023-05-11T21:23:59.340Z,4.22
2023-05-11T21:27:41.822Z,1.42
2023-05-11T21:31:23.864Z,1.88
2023-05-11T21:35:06.169Z,1.05
2023-05-11T21:38:47.998Z,2.22
2023-05-11T21:42:34.641Z,2.08
2023-05-11T21:46:16.633Z,1.52
2023-05-11T21:49:59.106Z,0.90
2023-05-11T21:53:40.933Z,0.85
2023-05-11T21:57:22.906Z,1.98
2023-05-11T22:01:04.796Z,1.10
2023-05-11T22:04:47.297Z,2.22
2023-05-11T22:08:29.172Z,1.60
2023-05-11T22:12:10.992Z,5.78
2023-05-11T22:15:52.895Z,1.08
2023-05-11T22:19:35.153Z,2.70
2023-05-11T22:23:17.360Z,2.78
2023-05-11T22:26:59.541Z,1.30
2023-05-11T22:30:41.368Z,2.15
2023-05-11T22:34:23.223Z,2.88
2023-05-11T22:38:04.991Z,2.00
2023-05-11T22:41:46.956Z,1.85
2023-05-11T22:45:28.786Z,2.03
2023-05-11T22:49:10.769Z,2.15
2023-05-11T22:52:52.732Z,1.40
2023-05-11T22:56:34.611Z,1.25
2023-05-11T23:00:16.840Z,3.13
2023-05-11T23:03:58.673Z,3.25
2023-05-11T23:07:40.456Z,4.20
2023-05-11T23:11:22.427Z,2.13
2023-05-11T23:15:04.901Z,2.58
2023-05-11T23:18:47.031Z,2.33
2023-05-11T23:22:29.356Z,1.95
2023-05-11T23:26:11.315Z,2.78
2023-05-11T23:29:53.129Z,3.83
2023-05-11T23:33:35.015Z,5.53
2023-05-11T23:37:16.936Z,3.28
2023-05-11T23:40:59.312Z,1.92
2023-05-11T23:44:41.100Z,2.83
2023-05-11T23:48:23.203Z,2.90
2023-05-11T23:52:05.246Z,2.67
2023-05-11T23:55:50.815Z,3.20
2023-05-11T23:59:32.600Z,4.57
